sensor_id;sensor_type;location;lat;lon;timestamp;P1;durP1;ratioP1;P2;durP2;ratioP2
79399;SDS011;68856;45.586;10.264;2023-08-08T00:00:11;1.50;;;0.47;;
79399;SDS011;68856;45.586;10.264;2023-08-08T00:02:38;0.50;;;0.40;;
79399;SDS011;68856;45.586;10.264;2023-08-08T00:05:05;0.70;;;0.40;;
79399;SDS011;68856;45.586;10.264;2023-08-08T00:07:31;2.05;;;0.57;;
79399;SDS011;68856;45.586;10.264;2023-08-08T00:09:58;0.47;;;0.38;;
79399;SDS011;68856;45.586;10.264;2023-08-08T00:12:24;0.30;;;0.30;;
79399;SDS011;68856;45.586;10.264;2023-08-08T00:14:50;0.60;;;0.43;;
79399;SDS011;68856;45.586;10.264;2023-08-08T00:17:17;0.55;;;0.55;;
79399;SDS011;68856;45.586;10.264;2023-08-08T00:19:43;1.50;;;0.60;;
79399;SDS011;68856;45.586;10.264;2023-08-08T00:22:09;0.60;;;0.60;;
79399;SDS011;68856;45.586;10.264;2023-08-08T00:24:35;0.73;;;0.40;;
79399;SDS011;68856;45.586;10.264;2023-08-08T00:27:02;1.42;;;0.50;;
79399;SDS011;68856;45.586;10.264;2023-08-08T00:29:28;1.73;;;0.63;;
79399;SDS011;68856;45.586;10.264;2023-08-08T00:31:55;0.77;;;0.60;;
79399;SDS011;68856;45.586;10.264;2023-08-08T00:34:21;0.77;;;0.43;;
79399;SDS011;68856;45.586;10.264;2023-08-08T00:36:47;4.03;;;0.70;;
79399;SDS011;68856;45.586;10.264;2023-08-08T00:39:13;0.43;;;0.30;;
79399;SDS011;68856;45.586;10.264;2023-08-08T00:41:40;1.38;;;0.30;;
79399;SDS011;68856;45.586;10.264;2023-08-08T00:44:06;0.88;;;0.40;;
79399;SDS011;68856;45.586;10.264;2023-08-08T00:46:32;0.45;;;0.43;;
79399;SDS011;68856;45.586;10.264;2023-08-08T00:48:58;0.50;;;0.40;;
79399;SDS011;68856;45.586;10.264;2023-08-08T00:51:25;0.47;;;0.47;;
79399;SDS011;68856;45.586;10.264;2023-08-08T00:53:51;0.50;;;0.50;;
79399;SDS011;68856;45.586;10.264;2023-08-08T00:56:18;1.13;;;0.50;;
79399;SDS011;68856;45.586;10.264;2023-08-08T00:58:44;0.60;;;0.40;;
79399;SDS011;68856;45.586;10.264;2023-08-08T01:01:11;4.13;;;0.60;;
79399;SDS011;68856;45.586;10.264;2023-08-08T01:03:38;2.15;;;0.40;;
79399;SDS011;68856;45.586;10.264;2023-08-08T01:06:16;0.50;;;0.43;;
79399;SDS011;68856;45.586;10.264;2023-08-08T01:09:25;0.57;;;0.40;;
79399;SDS011;68856;45.586;10.264;2023-08-08T01:11:56;0.55;;;0.55;;
79399;SDS011;68856;45.586;10.264;2023-08-08T01:14:24;0.82;;;0.52;;
79399;SDS011;68856;45.586;10.264;2023-08-08T01:16:53;0.55;;;0.55;;
79399;SDS011;68856;45.586;10.264;2023-08-08T01:19:23;0.60;;;0.50;;
79399;SDS011;68856;45.586;10.264;2023-08-08T01:21:57;0.63;;;0.30;;
79399;SDS011;68856;45.586;10.264;2023-08-08T01:24:29;0.82;;;0.28;;
79399;SDS011;68856;45.586;10.264;2023-08-08T01:26:58;1.75;;;0.57;;
79399;SDS011;68856;45.586;10.264;2023-08-08T01:29:26;0.40;;;0.30;;
79399;SDS011;68856;45.586;10.264;2023-08-08T01:31:53;1.95;;;0.60;;
79399;SDS011;68856;45.586;10.264;2023-08-08T01:34:20;0.70;;;0.50;;
79399;SDS011;68856;45.586;10.264;2023-08-08T01:36:52;1.33;;;0.50;;
79399;SDS011;68856;45.586;10.264;2023-08-08T01:39:43;1.02;;;0.50;;
79399;SDS011;68856;45.586;10.264;2023-08-08T01:42:11;0.60;;;0.43;;
79399;SDS011;68856;45.586;10.264;2023-08-08T01:44:40;1.40;;;0.60;;
79399;SDS011;68856;45.586;10.264;2023-08-08T01:47:07;0.65;;;0.40;;
79399;SDS011;68856;45.586;10.264;2023-08-08T01:49:34;0.77;;;0.40;;
79399;SDS011;68856;45.586;10.264;2023-08-08T01:52:00;2.35;;;0.50;;
79399;SDS011;68856;45.586;10.264;2023-08-08T01:54:26;1.50;;;0.47;;
79399;SDS011;68856;45.586;10.264;2023-08-08T01:56:53;0.30;;;0.30;;
79399;SDS011;68856;45.586;10.264;2023-08-08T01:59:19;0.80;;;0.50;;
79399;SDS011;68856;45.586;10.264;2023-08-08T02:01:45;1.05;;;0.40;;
79399;SDS011;68856;45.586;10.264;2023-08-08T02:04:11;0.82;;;0.32;;
79399;SDS011;68856;45.586;10.264;2023-08-08T02:06:38;0.30;;;0.30;;
79399;SDS011;68856;45.586;10.264;2023-08-08T02:09:04;1.27;;;0.55;;
79399;SDS011;68856;45.586;10.264;2023-08-08T02:11:31;1.20;;;0.60;;
79399;SDS011;68856;45.586;10.264;2023-08-08T02:13:57;0.47;;;0.47;;
79399;SDS011;68856;45.586;10.264;2023-08-08T02:16:23;0.40;;;0.40;;
79399;SDS011;68856;45.586;10.264;2023-08-08T02:18:49;0.50;;;0.47;;
79399;SDS011;68856;45.586;10.264;2023-08-08T02:21:16;0.60;;;0.60;;
79399;SDS011;68856;45.586;10.264;2023-08-08T02:23:42;1.27;;;0.40;;
79399;SDS011;68856;45.586;10.264;2023-08-08T02:26:08;3.13;;;0.43;;
79399;SDS011;68856;45.586;10.264;2023-08-08T02:28:34;0.40;;;0.38;;
79399;SDS011;68856;45.586;10.264;2023-08-08T02:31:01;0.65;;;0.43;;
79399;SDS011;68856;45.586;10.264;2023-08-08T02:33:27;1.60;;;0.60;;
79399;SDS011;68856;45.586;10.264;2023-08-08T02:35:53;0.52;;;0.50;;
79399;SDS011;68856;45.586;10.264;2023-08-08T02:38:19;0.40;;;0.40;;
79399;SDS011;68856;45.586;10.264;2023-08-08T02:40:46;0.63;;;0.32;;
79399;SDS011;68856;45.586;10.264;2023-08-08T02:43:12;0.52;;;0.50;;
79399;SDS011;68856;45.586;10.264;2023-08-08T02:45:38;0.50;;;0.50;;
79399;SDS011;68856;45.586;10.264;2023-08-08T02:48:05;0.57;;;0.52;;
79399;SDS011;68856;45.586;10.264;2023-08-08T02:50:31;0.40;;;0.40;;
79399;SDS011;68856;45.586;10.264;2023-08-08T02:52:57;0.68;;;0.50;;
79399;SDS011;68856;45.586;10.264;2023-08-08T02:55:24;0.57;;;0.43;;
79399;SDS011;68856;45.586;10.264;2023-08-08T02:57:50;1.38;;;0.50;;
79399;SDS011;68856;45.586;10.264;2023-08-08T03:00:16;0.40;;;0.40;;
79399;SDS011;68856;45.586;10.264;2023-08-08T03:02:42;0.25;;;0.22;;
79399;SDS011;68856;45.586;10.264;2023-08-08T03:05:09;0.40;;;0.40;;
79399;SDS011;68856;45.586;10.264;2023-08-08T03:07:35;0.57;;;0.30;;
79399;SDS011;68856;45.586;10.264;2023-08-08T03:10:01;1.55;;;0.65;;
79399;SDS011;68856;45.586;10.264;2023-08-08T03:12:28;1.00;;;0.50;;
79399;SDS011;68856;45.586;10.264;2023-08-08T03:14:54;1.10;;;0.50;;
79399;SDS011;68856;45.586;10.264;2023-08-08T03:17:21;0.90;;;0.40;;
79399;SDS011;68856;45.586;10.264;2023-08-08T03:19:48;0.90;;;0.45;;
79399;SDS011;68856;45.586;10.264;2023-08-08T03:22:14;2.88;;;0.43;;
79399;SDS011;68856;45.586;10.264;2023-08-08T03:24:40;0.90;;;0.70;;
79399;SDS011;68856;45.586;10.264;2023-08-08T03:27:06;0.60;;;0.55;;
79399;SDS011;68856;45.586;10.264;2023-08-08T03:29:34;0.52;;;0.50;;
79399;SDS011;68856;45.586;10.264;2023-08-08T03:32:00;0.75;;;0.50;;
79399;SDS011;68856;45.586;10.264;2023-08-08T03:34:26;0.55;;;0.50;;
79399;SDS011;68856;45.586;10.264;2023-08-08T03:36:53;0.38;;;0.20;;
79399;SDS011;68856;45.586;10.264;2023-08-08T03:39:19;0.50;;;0.50;;
79399;SDS011;68856;45.586;10.264;2023-08-08T03:41:46;0.38;;;0.38;;
79399;SDS011;68856;45.586;10.264;2023-08-08T03:44:12;0.70;;;0.38;;
79399;SDS011;68856;45.586;10.264;2023-08-08T03:46:39;1.67;;;0.30;;
79399;SDS011;68856;45.586;10.264;2023-08-08T03:49:05;0.55;;;0.32;;
79399;SDS011;68856;45.586;10.264;2023-08-08T03:51:31;0.80;;;0.60;;
79399;SDS011;68856;45.586;10.264;2023-08-08T03:53:57;0.40;;;0.40;;
79399;SDS011;68856;45.586;10.264;2023-08-08T03:56:24;0.45;;;0.45;;
79399;SDS011;68856;45.586;10.264;2023-08-08T03:58:50;1.58;;;0.65;;
79399;SDS011;68856;45.586;10.264;2023-08-08T04:01:16;0.63;;;0.52;;
79399;SDS011;68856;45.586;10.264;2023-08-08T04:03:43;0.40;;;0.30;;
79399;SDS011;68856;45.586;10.264;2023-08-08T04:06:09;2.67;;;0.70;;
79399;SDS011;68856;45.586;10.264;2023-08-08T04:08:35;3.25;;;0.52;;
79399;SDS011;68856;45.586;10.264;2023-08-08T04:11:01;0.82;;;0.32;;
79399;SDS011;68856;45.586;10.264;2023-08-08T04:13:28;1.13;;;0.60;;
79399;SDS011;68856;45.586;10.264;2023-08-08T04:15:54;1.15;;;0.35;;
79399;SDS011;68856;45.586;10.264;2023-08-08T04:18:21;0.63;;;0.63;;
79399;SDS011;68856;45.586;10.264;2023-08-08T04:20:47;0.50;;;0.30;;
79399;SDS011;68856;45.586;10.264;2023-08-08T04:23:13;1.60;;;0.70;;
79399;SDS011;68856;45.586;10.264;2023-08-08T04:25:39;0.82;;;0.47;;
79399;SDS011;68856;45.586;10.264;2023-08-08T04:28:06;0.40;;;0.22;;
79399;SDS011;68856;45.586;10.264;2023-08-08T04:30:32;0.50;;;0.45;;
79399;SDS011;68856;45.586;10.264;2023-08-08T04:32:58;0.60;;;0.50;;
79399;SDS011;68856;45.586;10.264;2023-08-08T04:35:25;1.98;;;0.47;;
79399;SDS011;68856;45.586;10.264;2023-08-08T04:37:51;0.55;;;0.45;;
79399;SDS011;68856;45.586;10.264;2023-08-08T04:40:17;0.40;;;0.40;;
79399;SDS011;68856;45.586;10.264;2023-08-08T04:42:43;2.45;;;0.70;;
79399;SDS011;68856;45.586;10.264;2023-08-08T04:45:10;3.20;;;0.80;;
79399;SDS011;68856;45.586;10.264;2023-08-08T04:47:36;2.15;;;0.55;;
79399;SDS011;68856;45.586;10.264;2023-08-08T04:50:02;1.73;;;0.93;;
79399;SDS011;68856;45.586;10.264;2023-08-08T04:52:29;1.65;;;0.52;;
79399;SDS011;68856;45.586;10.264;2023-08-08T04:54:55;1.58;;;0.60;;
79399;SDS011;68856;45.586;10.264;2023-08-08T04:57:21;1.48;;;0.50;;
79399;SDS011;68856;45.586;10.264;2023-08-08T04:59:47;0.85;;;0.60;;
79399;SDS011;68856;45.586;10.264;2023-08-08T05:02:14;1.55;;;0.50;;
79399;SDS011;68856;45.586;10.264;2023-08-08T05:04:41;0.40;;;0.38;;
79399;SDS011;68856;45.586;10.264;2023-08-08T05:07:07;1.73;;;0.60;;
79399;SDS011;68856;45.586;10.264;2023-08-08T05:09:34;2.63;;;0.70;;
79399;SDS011;68856;45.586;10.264;2023-08-08T05:12:00;0.65;;;0.52;;
79399;SDS011;68856;45.586;10.264;2023-08-08T05:14:27;2.05;;;0.40;;
79399;SDS011;68856;45.586;10.264;2023-08-08T05:16:53;1.83;;;0.60;;
79399;SDS011;68856;45.586;10.264;2023-08-08T05:19:19;0.60;;;0.47;;
79399;SDS011;68856;45.586;10.264;2023-08-08T05:21:46;0.80;;;0.38;;
79399;SDS011;68856;45.586;10.264;2023-08-08T05:24:12;0.60;;;0.60;;
79399;SDS011;68856;45.586;10.264;2023-08-08T05:26:38;1.08;;;0.68;;
79399;SDS011;68856;45.586;10.264;2023-08-08T05:29:04;2.90;;;0.75;;
79399;SDS011;68856;45.586;10.264;2023-08-08T05:31:31;2.47;;;0.60;;
79399;SDS011;68856;45.586;10.264;2023-08-08T05:33:57;0.40;;;0.32;;
79399;SDS011;68856;45.586;10.264;2023-08-08T05:36:23;0.88;;;0.50;;
79399;SDS011;68856;45.586;10.264;2023-08-08T05:38:50;0.50;;;0.50;;
79399;SDS011;68856;45.586;10.264;2023-08-08T05:41:16;2.15;;;0.70;;
79399;SDS011;68856;45.586;10.264;2023-08-08T05:43:42;1.02;;;0.30;;
79399;SDS011;68856;45.586;10.264;2023-08-08T05:46:11;0.50;;;0.32;;
79399;SDS011;68856;45.586;10.264;2023-08-08T05:48:37;1.58;;;0.43;;
79399;SDS011;68856;45.586;10.264;2023-08-08T05:51:03;6.45;;;0.57;;
79399;SDS011;68856;45.586;10.264;2023-08-08T05:53:31;2.70;;;0.57;;
79399;SDS011;68856;45.586;10.264;2023-08-08T05:55:57;1.65;;;0.75;;
79399;SDS011;68856;45.586;10.264;2023-08-08T05:58:23;1.70;;;0.70;;
79399;SDS011;68856;45.586;10.264;2023-08-08T06:00:50;0.40;;;0.40;;
79399;SDS011;68856;45.586;10.264;2023-08-08T06:03:17;1.05;;;0.50;;
79399;SDS011;68856;45.586;10.264;2023-08-08T06:05:43;0.43;;;0.38;;
79399;SDS011;68856;45.586;10.264;2023-08-08T06:08:09;0.60;;;0.50;;
79399;SDS011;68856;45.586;10.264;2023-08-08T06:10:37;0.40;;;0.32;;
79399;SDS011;68856;45.586;10.264;2023-08-08T06:13:03;0.68;;;0.50;;
79399;SDS011;68856;45.586;10.264;2023-08-08T06:15:30;0.45;;;0.45;;
79399;SDS011;68856;45.586;10.264;2023-08-08T06:17:56;0.38;;;0.30;;
79399;SDS011;68856;45.586;10.264;2023-08-08T06:20:23;0.43;;;0.40;;
79399;SDS011;68856;45.586;10.264;2023-08-08T06:22:49;0.43;;;0.40;;
79399;SDS011;68856;45.586;10.264;2023-08-08T06:25:16;2.78;;;0.88;;
79399;SDS011;68856;45.586;10.264;2023-08-08T06:27:43;0.38;;;0.38;;
79399;SDS011;68856;45.586;10.264;2023-08-08T06:30:09;1.70;;;0.50;;
79399;SDS011;68856;45.586;10.264;2023-08-08T06:32:35;1.02;;;0.60;;
79399;SDS011;68856;45.586;10.264;2023-08-08T06:35:02;0.77;;;0.60;;
79399;SDS011;68856;45.586;10.264;2023-08-08T06:37:28;0.40;;;0.40;;
79399;SDS011;68856;45.586;10.264;2023-08-08T06:39:54;2.58;;;0.52;;
79399;SDS011;68856;45.586;10.264;2023-08-08T06:42:21;0.47;;;0.47;;
79399;SDS011;68856;45.586;10.264;2023-08-08T06:44:47;3.15;;;0.65;;
79399;SDS011;68856;45.586;10.264;2023-08-08T06:47:13;2.40;;;0.60;;
79399;SDS011;68856;45.586;10.264;2023-08-08T06:49:40;1.88;;;0.47;;
79399;SDS011;68856;45.586;10.264;2023-08-08T06:52:06;0.40;;;0.40;;
79399;SDS011;68856;45.586;10.264;2023-08-08T06:54:33;2.30;;;0.68;;
79399;SDS011;68856;45.586;10.264;2023-08-08T06:56:59;5.32;;;0.70;;
79399;SDS011;68856;45.586;10.264;2023-08-08T06:59:27;2.15;;;0.60;;
79399;SDS011;68856;45.586;10.264;2023-08-08T07:01:53;1.17;;;0.65;;
79399;SDS011;68856;45.586;10.264;2023-08-08T07:04:21;0.95;;;0.70;;
79399;SDS011;68856;45.586;10.264;2023-08-08T07:06:47;1.17;;;0.77;;
79399;SDS011;68856;45.586;10.264;2023-08-08T07:09:14;0.80;;;0.63;;
79399;SDS011;68856;45.586;10.264;2023-08-08T07:11:40;2.28;;;0.80;;
79399;SDS011;68856;45.586;10.264;2023-08-08T07:14:06;0.75;;;0.75;;
79399;SDS011;68856;45.586;10.264;2023-08-08T07:16:33;0.77;;;0.70;;
79399;SDS011;68856;45.586;10.264;2023-08-08T07:18:59;0.73;;;0.55;;
79399;SDS011;68856;45.586;10.264;2023-08-08T07:21:25;2.67;;;0.57;;
79399;SDS011;68856;45.586;10.264;2023-08-08T07:23:52;1.23;;;0.63;;
79399;SDS011;68856;45.586;10.264;2023-08-08T07:26:18;1.48;;;0.70;;
79399;SDS011;68856;45.586;10.264;2023-08-08T07:28:44;0.52;;;0.43;;
79399;SDS011;68856;45.586;10.264;2023-08-08T07:31:10;0.55;;;0.55;;
79399;SDS011;68856;45.586;10.264;2023-08-08T07:33:37;0.30;;;0.30;;
79399;SDS011;68856;45.586;10.264;2023-08-08T07:36:03;1.92;;;0.50;;
79399;SDS011;68856;45.586;10.264;2023-08-08T07:38:30;1.30;;;0.40;;
79399;SDS011;68856;45.586;10.264;2023-08-08T07:40:58;0.88;;;0.60;;
79399;SDS011;68856;45.586;10.264;2023-08-08T07:43:24;0.90;;;0.60;;
79399;SDS011;68856;45.586;10.264;2023-08-08T07:45:50;1.50;;;0.63;;
79399;SDS011;68856;45.586;10.264;2023-08-08T07:48:16;0.80;;;0.60;;
79399;SDS011;68856;45.586;10.264;2023-08-08T07:50:43;1.48;;;0.70;;
79399;SDS011;68856;45.586;10.264;2023-08-08T07:53:09;1.50;;;0.57;;
79399;SDS011;68856;45.586;10.264;2023-08-08T07:55:35;1.42;;;0.45;;
79399;SDS011;68856;45.586;10.264;2023-08-08T07:58:01;0.60;;;0.50;;
79399;SDS011;68856;45.586;10.264;2023-08-08T08:00:28;1.23;;;0.57;;
79399;SDS011;68856;45.586;10.264;2023-08-08T08:02:54;0.50;;;0.40;;
79399;SDS011;68856;45.586;10.264;2023-08-08T08:05:20;0.65;;;0.65;;
79399;SDS011;68856;45.586;10.264;2023-08-08T08:07:46;0.73;;;0.45;;
79399;SDS011;68856;45.586;10.264;2023-08-08T08:10:13;0.70;;;0.57;;
79399;SDS011;68856;45.586;10.264;2023-08-08T08:12:39;1.38;;;0.60;;
79399;SDS011;68856;45.586;10.264;2023-08-08T08:15:07;2.50;;;0.75;;
79399;SDS011;68856;45.586;10.264;2023-08-08T08:17:34;4.07;;;0.82;;
79399;SDS011;68856;45.586;10.264;2023-08-08T08:20:00;1.67;;;0.65;;
79399;SDS011;68856;45.586;10.264;2023-08-08T08:22:30;2.67;;;0.75;;
79399;SDS011;68856;45.586;10.264;2023-08-08T08:24:57;1.17;;;0.70;;
79399;SDS011;68856;45.586;10.264;2023-08-08T08:27:23;0.70;;;0.60;;
79399;SDS011;68856;45.586;10.264;2023-08-08T08:29:50;0.57;;;0.45;;
79399;SDS011;68856;45.586;10.264;2023-08-08T08:32:16;1.25;;;0.57;;
79399;SDS011;68856;45.586;10.264;2023-08-08T08:34:42;0.88;;;0.80;;
79399;SDS011;68856;45.586;10.264;2023-08-08T08:37:09;3.35;;;0.55;;
79399;SDS011;68856;45.586;10.264;2023-08-08T08:39:35;3.15;;;0.82;;
79399;SDS011;68856;45.586;10.264;2023-08-08T08:42:02;5.03;;;0.57;;
79399;SDS011;68856;45.586;10.264;2023-08-08T08:47:02;2.63;;;0.93;;
79399;SDS011;68856;45.586;10.264;2023-08-08T08:49:35;2.90;;;0.63;;
79399;SDS011;68856;45.586;10.264;2023-08-08T08:52:04;2.95;;;0.90;;
79399;SDS011;68856;45.586;10.264;2023-08-08T08:54:31;3.67;;;0.80;;
79399;SDS011;68856;45.586;10.264;2023-08-08T08:56:58;2.72;;;0.60;;
79399;SDS011;68856;45.586;10.264;2023-08-08T08:59:24;1.88;;;0.43;;
79399;SDS011;68856;45.586;10.264;2023-08-08T09:01:51;3.15;;;0.63;;
79399;SDS011;68856;45.586;10.264;2023-08-08T09:04:19;1.65;;;0.60;;
79399;SDS011;68856;45.586;10.264;2023-08-08T09:06:46;1.30;;;0.68;;
79399;SDS011;68856;45.586;10.264;2023-08-08T09:09:13;2.20;;;0.98;;
79399;SDS011;68856;45.586;10.264;2023-08-08T09:11:42;6.10;;;1.73;;
79399;SDS011;68856;45.586;10.264;2023-08-08T09:14:20;4.60;;;0.70;;
79399;SDS011;68856;45.586;10.264;2023-08-08T09:16:47;6.80;;;1.15;;
79399;SDS011;68856;45.586;10.264;2023-08-08T09:19:15;4.22;;;0.90;;
79399;SDS011;68856;45.586;10.264;2023-08-08T09:21:43;2.72;;;0.98;;
79399;SDS011;68856;45.586;10.264;2023-08-08T09:24:09;4.45;;;0.80;;
79399;SDS011;68856;45.586;10.264;2023-08-08T09:26:36;4.78;;;0.80;;
79399;SDS011;68856;45.586;10.264;2023-08-08T09:29:04;2.72;;;0.80;;
79399;SDS011;68856;45.586;10.264;2023-08-08T09:31:30;1.58;;;0.77;;
79399;SDS011;68856;45.586;10.264;2023-08-08T09:33:59;4.30;;;0.68;;
79399;SDS011;68856;45.586;10.264;2023-08-08T09:36:27;1.42;;;0.63;;
79399;SDS011;68856;45.586;10.264;2023-08-08T09:38:54;2.20;;;0.47;;
79399;SDS011;68856;45.586;10.264;2023-08-08T09:41:23;1.48;;;0.63;;
79399;SDS011;68856;45.586;10.264;2023-08-08T09:43:51;3.65;;;0.60;;
79399;SDS011;68856;45.586;10.264;2023-08-08T09:46:18;4.32;;;0.95;;
79399;SDS011;68856;45.586;10.264;2023-08-08T09:48:45;0.98;;;0.50;;
79399;SDS011;68856;45.586;10.264;2023-08-08T09:51:12;4.50;;;0.82;;
79399;SDS011;68856;45.586;10.264;2023-08-08T09:53:39;3.15;;;0.70;;
79399;SDS011;68856;45.586;10.264;2023-08-08T09:56:06;7.00;;;1.23;;
79399;SDS011;68856;45.586;10.264;2023-08-08T09:58:33;4.00;;;0.90;;
79399;SDS011;68856;45.586;10.264;2023-08-08T10:01:00;2.17;;;0.88;;
79399;SDS011;68856;45.586;10.264;2023-08-08T10:03:26;4.47;;;0.98;;
79399;SDS011;68856;45.586;10.264;2023-08-08T10:05:53;1.75;;;0.60;;
79399;SDS011;68856;45.586;10.264;2023-08-08T10:08:20;3.72;;;0.70;;
79399;SDS011;68856;45.586;10.264;2023-08-08T10:10:47;4.25;;;1.05;;
79399;SDS011;68856;45.586;10.264;2023-08-08T10:15:48;1.23;;;0.73;;
79399;SDS011;68856;45.586;10.264;2023-08-08T10:18:16;2.55;;;0.73;;
79399;SDS011;68856;45.586;10.264;2023-08-08T10:20:47;1.30;;;0.73;;
79399;SDS011;68856;45.586;10.264;2023-08-08T10:23:15;1.05;;;0.57;;
79399;SDS011;68856;45.586;10.264;2023-08-08T10:25:50;1.92;;;0.73;;
79399;SDS011;68856;45.586;10.264;2023-08-08T10:28:18;1.27;;;0.70;;
79399;SDS011;68856;45.586;10.264;2023-08-08T10:35:56;0.70;;;0.70;;
79399;SDS011;68856;45.586;10.264;2023-08-08T10:38:27;1.92;;;0.70;;
79399;SDS011;68856;45.586;10.264;2023-08-08T10:41:13;2.60;;;0.63;;
79399;SDS011;68856;45.586;10.264;2023-08-08T10:44:20;2.60;;;0.63;;
79399;SDS011;68856;45.586;10.264;2023-08-08T10:46:34;1.50;;;0.70;;
79399;SDS011;68856;45.586;10.264;2023-08-08T10:49:01;3.55;;;0.80;;
79399;SDS011;68856;45.586;10.264;2023-08-08T10:51:37;1.88;;;0.50;;
79399;SDS011;68856;45.586;10.264;2023-08-08T10:54:11;1.60;;;0.60;;
79399;SDS011;68856;45.586;10.264;2023-08-08T10:56:40;2.60;;;0.90;;
79399;SDS011;68856;45.586;10.264;2023-08-08T10:59:24;4.35;;;0.65;;
79399;SDS011;68856;45.586;10.264;2023-08-08T11:01:52;4.63;;;0.98;;
79399;SDS011;68856;45.586;10.264;2023-08-08T11:04:19;1.73;;;0.82;;
79399;SDS011;68856;45.586;10.264;2023-08-08T11:06:48;3.08;;;1.40;;
79399;SDS011;68856;45.586;10.264;2023-08-08T11:09:15;3.55;;;1.05;;
79399;SDS011;68856;45.586;10.264;2023-08-08T11:11:43;3.88;;;1.00;;
79399;SDS011;68856;45.586;10.264;2023-08-08T11:14:15;1.85;;;0.80;;
79399;SDS011;68856;45.586;10.264;2023-08-08T11:16:43;1.58;;;0.70;;
79399;SDS011;68856;45.586;10.264;2023-08-08T11:19:10;1.88;;;0.90;;
79399;SDS011;68856;45.586;10.264;2023-08-08T11:21:38;7.85;;;0.98;;
79399;SDS011;68856;45.586;10.264;2023-08-08T11:24:06;1.23;;;0.98;;
79399;SDS011;68856;45.586;10.264;2023-08-08T11:26:37;0.93;;;0.82;;
79399;SDS011;68856;45.586;10.264;2023-08-08T11:29:05;1.45;;;1.02;;
79399;SDS011;68856;45.586;10.264;2023-08-08T11:31:33;2.58;;;1.00;;
79399;SDS011;68856;45.586;10.264;2023-08-08T11:34:00;4.80;;;0.85;;
79399;SDS011;68856;45.586;10.264;2023-08-08T11:36:31;0.80;;;0.80;;
79399;SDS011;68856;45.586;10.264;2023-08-08T11:39:00;2.97;;;0.98;;
79399;SDS011;68856;45.586;10.264;2023-08-08T11:41:35;1.55;;;0.70;;
79399;SDS011;68856;45.586;10.264;2023-08-08T11:44:02;1.90;;;0.80;;
79399;SDS011;68856;45.586;10.264;2023-08-08T11:46:29;2.63;;;1.00;;
79399;SDS011;68856;45.586;10.264;2023-08-08T11:49:02;1.42;;;0.73;;
79399;SDS011;68856;45.586;10.264;2023-08-08T11:51:32;2.45;;;0.80;;
79399;SDS011;68856;45.586;10.264;2023-08-08T11:54:00;2.88;;;0.73;;
79399;SDS011;68856;45.586;10.264;2023-08-08T11:56:28;4.90;;;1.10;;
79399;SDS011;68856;45.586;10.264;2023-08-08T11:58:57;1.25;;;1.00;;
79399;SDS011;68856;45.586;10.264;2023-08-08T12:01:26;3.22;;;1.10;;
79399;SDS011;68856;45.586;10.264;2023-08-08T12:03:54;1.40;;;1.00;;
79399;SDS011;68856;45.586;10.264;2023-08-08T12:06:20;3.03;;;0.80;;
79399;SDS011;68856;45.586;10.264;2023-08-08T12:08:47;1.23;;;0.90;;
79399;SDS011;68856;45.586;10.264;2023-08-08T12:11:14;1.10;;;0.93;;
79399;SDS011;68856;45.586;10.264;2023-08-08T12:13:41;1.13;;;0.73;;
79399;SDS011;68856;45.586;10.264;2023-08-08T12:16:09;2.88;;;1.00;;
79399;SDS011;68856;45.586;10.264;2023-08-08T12:18:37;0.93;;;0.80;;
79399;SDS011;68856;45.586;10.264;2023-08-08T12:21:07;1.05;;;0.75;;
79399;SDS011;68856;45.586;10.264;2023-08-08T12:23:34;0.73;;;0.63;;
79399;SDS011;68856;45.586;10.264;2023-08-08T12:26:05;0.88;;;0.70;;
79399;SDS011;68856;45.586;10.264;2023-08-08T12:28:32;4.22;;;0.80;;
79399;SDS011;68856;45.586;10.264;2023-08-08T12:30:59;0.70;;;0.70;;
79399;SDS011;68856;45.586;10.264;2023-08-08T12:33:26;1.23;;;0.68;;
79399;SDS011;68856;45.586;10.264;2023-08-08T12:35:52;4.97;;;0.60;;
79399;SDS011;68856;45.586;10.264;2023-08-08T12:38:19;1.85;;;0.70;;
79399;SDS011;68856;45.586;10.264;2023-08-08T12:40:45;0.70;;;0.70;;
79399;SDS011;68856;45.586;10.264;2023-08-08T12:43:11;3.65;;;0.80;;
79399;SDS011;68856;45.586;10.264;2023-08-08T12:45:39;1.27;;;0.88;;
79399;SDS011;68856;45.586;10.264;2023-08-08T12:48:05;1.58;;;0.75;;
79399;SDS011;68856;45.586;10.264;2023-08-08T12:50:32;1.60;;;0.60;;
79399;SDS011;68856;45.586;10.264;2023-08-08T12:52:58;1.23;;;0.60;;
79399;SDS011;68856;45.586;10.264;2023-08-08T12:55:24;2.60;;;0.70;;
79399;SDS011;68856;45.586;10.264;2023-08-08T12:57:51;1.42;;;0.50;;
79399;SDS011;68856;45.586;10.264;2023-08-08T13:00:17;1.92;;;0.80;;
79399;SDS011;68856;45.586;10.264;2023-08-08T13:02:43;1.42;;;0.70;;
79399;SDS011;68856;45.586;10.264;2023-08-08T13:05:10;4.15;;;0.80;;
79399;SDS011;68856;45.586;10.264;2023-08-08T13:07:36;1.83;;;0.68;;
79399;SDS011;68856;45.586;10.264;2023-08-08T13:10:02;3.72;;;1.00;;
79399;SDS011;68856;45.586;10.264;2023-08-08T13:12:30;2.00;;;0.77;;
79399;SDS011;68856;45.586;10.264;2023-08-08T13:14:56;1.85;;;0.93;;
79399;SDS011;68856;45.586;10.264;2023-08-08T13:17:22;1.67;;;0.80;;
79399;SDS011;68856;45.586;10.264;2023-08-08T13:19:49;1.48;;;0.63;;
79399;SDS011;68856;45.586;10.264;2023-08-08T13:22:15;1.65;;;0.85;;
79399;SDS011;68856;45.586;10.264;2023-08-08T13:24:41;1.55;;;0.75;;
79399;SDS011;68856;45.586;10.264;2023-08-08T13:27:07;1.20;;;0.90;;
79399;SDS011;68856;45.586;10.264;2023-08-08T13:29:34;3.92;;;1.10;;
79399;SDS011;68856;45.586;10.264;2023-08-08T13:32:00;3.17;;;1.10;;
79399;SDS011;68856;45.586;10.264;2023-08-08T13:34:26;3.85;;;0.85;;
79399;SDS011;68856;45.586;10.264;2023-08-08T13:36:52;2.50;;;0.82;;
79399;SDS011;68856;45.586;10.264;2023-08-08T13:39:19;1.88;;;0.88;;
79399;SDS011;68856;45.586;10.264;2023-08-08T13:41:46;2.97;;;0.90;;
79399;SDS011;68856;45.586;10.264;2023-08-08T13:44:12;5.60;;;0.95;;
79399;SDS011;68856;45.586;10.264;2023-08-08T13:46:38;0.98;;;0.75;;
79399;SDS011;68856;45.586;10.264;2023-08-08T13:49:05;1.73;;;0.95;;
79399;SDS011;68856;45.586;10.264;2023-08-08T13:51:31;2.03;;;1.00;;
79399;SDS011;68856;45.586;10.264;2023-08-08T13:53:57;0.68;;;0.57;;
79399;SDS011;68856;45.586;10.264;2023-08-08T13:56:24;4.90;;;1.00;;
79399;SDS011;68856;45.586;10.264;2023-08-08T13:58:50;1.02;;;0.70;;
79399;SDS011;68856;45.586;10.264;2023-08-08T14:01:16;2.25;;;0.98;;
79399;SDS011;68856;45.586;10.264;2023-08-08T14:03:42;2.95;;;0.73;;
79399;SDS011;68856;45.586;10.264;2023-08-08T14:06:09;1.13;;;0.77;;
79399;SDS011;68856;45.586;10.264;2023-08-08T14:08:35;2.40;;;1.00;;
79399;SDS011;68856;45.586;10.264;2023-08-08T14:11:01;3.40;;;0.82;;
79399;SDS011;68856;45.586;10.264;2023-08-08T14:13:28;2.88;;;1.00;;
79399;SDS011;68856;45.586;10.264;2023-08-08T14:15:54;1.15;;;0.75;;
79399;SDS011;68856;45.586;10.264;2023-08-08T14:18:20;1.55;;;0.90;;
79399;SDS011;68856;45.586;10.264;2023-08-08T14:20:46;1.92;;;0.90;;
79399;SDS011;68856;45.586;10.264;2023-08-08T14:23:13;8.15;;;1.13;;
79399;SDS011;68856;45.586;10.264;2023-08-08T14:25:39;4.38;;;0.90;;
79399;SDS011;68856;45.586;10.264;2023-08-08T14:28:06;3.28;;;0.88;;
79399;SDS011;68856;45.586;10.264;2023-08-08T14:30:32;1.73;;;0.95;;
79399;SDS011;68856;45.586;10.264;2023-08-08T14:32:58;4.03;;;1.27;;
79399;SDS011;68856;45.586;10.264;2023-08-08T14:35:25;2.63;;;0.88;;
79399;SDS011;68856;45.586;10.264;2023-08-08T14:37:53;0.85;;;0.80;;
79399;SDS011;68856;45.586;10.264;2023-08-08T14:40:19;2.90;;;1.25;;
79399;SDS011;68856;45.586;10.264;2023-08-08T14:42:45;5.82;;;0.95;;